createdAt,value
2017-03-08T00:00:34.970Z,999.47
2017-03-08T00:01:34.995Z,999.43
2017-03-08T00:02:35.025Z,999.42
2017-03-08T00:03:35.053Z,999.38
2017-03-08T00:04:35.329Z,999.26
2017-03-08T00:05:35.111Z,999.18
2017-03-08T00:06:35.132Z,999.13
2017-03-08T00:07:35.159Z,999.06
2017-03-08T00:08:35.185Z,999.1
2017-03-08T00:09:35.466Z,999.07
2017-03-08T00:10:35.242Z,999.08
2017-03-08T00:11:35.267Z,999.04
2017-03-08T00:12:35.295Z,999.1
2017-03-08T00:13:35.338Z,999.1
2017-03-08T00:14:35.601Z,999.05
2017-03-08T00:15:35.374Z,999.02
2017-03-08T00:16:35.403Z,998.98
2017-03-08T00:17:35.432Z,999.01
2017-03-08T00:18:35.457Z,998.99
2017-03-08T00:19:35.485Z,998.97
2017-03-08T00:20:35.510Z,998.99
2017-03-08T00:21:35.539Z,998.98
2017-03-08T00:22:35.563Z,998.96
2017-03-08T00:23:35.593Z,998.96
2017-03-08T00:24:35.621Z,998.96
2017-03-08T00:25:35.645Z,999
2017-03-08T00:26:35.675Z,998.95
2017-03-08T00:27:35.699Z,998.92
2017-03-08T00:28:35.727Z,998.96
2017-03-08T00:29:35.757Z,998.94
2017-03-08T00:30:35.780Z,998.97
2017-03-08T00:31:35.811Z,998.97
2017-03-08T00:32:35.835Z,998.94
2017-03-08T00:33:35.866Z,998.96
2017-03-08T00:34:35.885Z,998.97
2017-03-08T00:35:35.918Z,998.97
2017-03-08T00:36:35.943Z,998.93
2017-03-08T00:37:35.967Z,998.96
2017-03-08T00:38:35.991Z,998.87
2017-03-08T00:39:36.021Z,998.92
2017-03-08T00:40:36.049Z,998.88
2017-03-08T00:41:36.077Z,998.88
2017-03-08T00:42:36.106Z,998.87
2017-03-08T00:43:36.131Z,998.85
2017-03-08T00:44:36.169Z,998.91
2017-03-08T00:45:36.185Z,998.95
2017-03-08T00:46:36.214Z,999.02
2017-03-08T00:47:36.239Z,999
2017-03-08T00:48:36.267Z,999
2017-03-08T00:49:36.292Z,999.01
2017-03-08T00:50:36.321Z,999.01
2017-03-08T00:51:36.350Z,999.02
2017-03-08T00:52:36.374Z,999.01
2017-03-08T00:53:36.402Z,999.06
2017-03-08T00:54:36.428Z,999.1
2017-03-08T00:55:36.458Z,999.11
2017-03-08T00:56:36.480Z,999.14
2017-03-08T00:57:36.510Z,999.13
2017-03-08T00:58:36.535Z,999.15
2017-03-08T00:59:36.563Z,999.14
2017-03-08T01:00:36.589Z,999.13
2017-03-08T01:01:36.616Z,999.14
2017-03-08T01:02:36.643Z,999.16
2017-03-08T01:03:36.671Z,999.17
2017-03-08T01:04:36.696Z,999.15
2017-03-08T01:05:36.722Z,999.2
2017-03-08T01:06:36.749Z,999.2
2017-03-08T01:07:36.778Z,999.25
2017-03-08T01:08:36.807Z,999.31
2017-03-08T01:09:36.832Z,999.34
2017-03-08T01:10:36.857Z,999.33
2017-03-08T01:11:36.886Z,999.32
2017-03-08T01:12:36.914Z,999.34
2017-03-08T01:13:36.939Z,999.31
2017-03-08T01:14:36.966Z,999.25
2017-03-08T01:15:36.993Z,999.31
2017-03-08T01:16:37.021Z,999.27
2017-03-08T01:17:37.045Z,999.26
2017-03-08T01:18:37.071Z,999.3
2017-03-08T01:19:37.100Z,999.33
2017-03-08T01:20:37.128Z,999.29
2017-03-08T01:21:37.153Z,999.31
2017-03-08T01:22:37.182Z,999.35
2017-03-08T01:23:37.207Z,999.28
2017-03-08T01:24:37.235Z,999.28
2017-03-08T01:25:37.260Z,999.37
2017-03-08T01:26:37.289Z,999.4
2017-03-08T01:27:37.314Z,999.42
2017-03-08T01:28:37.340Z,999.38
2017-03-08T01:29:37.367Z,999.4
2017-03-08T01:30:37.395Z,999.38
2017-03-08T01:31:37.416Z,999.37
2017-03-08T01:32:37.445Z,999.35
2017-03-08T01:33:37.474Z,999.37
2017-03-08T01:34:37.503Z,999.24
2017-03-08T01:35:37.779Z,999.25
2017-03-08T01:36:37.556Z,999.24
2017-03-08T01:37:37.580Z,999.17
2017-03-08T01:38:37.632Z,999.13
2017-03-08T01:39:37.635Z,999.13
2017-03-08T01:40:37.915Z,999.17
2017-03-08T01:41:37.692Z,999.14
2017-03-08T01:42:37.717Z,999.13
2017-03-08T01:43:37.742Z,999.16
2017-03-08T01:44:37.765Z,999.2
2017-03-08T01:45:38.047Z,999.21
2017-03-08T01:46:37.820Z,999.23
2017-03-08T01:47:37.849Z,999.19
2017-03-08T01:48:37.873Z,999.2
2017-03-08T01:49:37.903Z,999.2
2017-03-08T01:50:38.175Z,999.21
2017-03-08T01:51:37.956Z,999.19
2017-03-08T01:52:37.981Z,999.23
2017-03-08T01:53:38.009Z,999.22
2017-03-08T01:54:38.035Z,999.27
2017-03-08T01:55:38.314Z,999.3
2017-03-08T01:56:38.088Z,999.3
2017-03-08T01:57:38.112Z,999.35
2017-03-08T01:58:38.141Z,999.35
2017-03-08T01:59:38.166Z,999.38
2017-03-08T02:00:38.447Z,999.34
2017-03-08T02:01:38.217Z,999.33
2017-03-08T02:02:38.248Z,999.3
2017-03-08T02:03:38.273Z,999.28
2017-03-08T02:04:38.302Z,999.28
2017-03-08T02:05:38.577Z,999.29
2017-03-08T02:06:38.356Z,999.31
2017-03-08T02:07:38.380Z,999.32
2017-03-08T02:08:38.400Z,999.31
2017-03-08T02:09:38.426Z,999.33
2017-03-08T02:10:38.458Z,999.3
2017-03-08T02:11:38.487Z,999.25
2017-03-08T02:12:38.512Z,999.21
2017-03-08T02:13:38.540Z,999.26
2017-03-08T02:14:38.565Z,999.23
2017-03-08T02:15:38.596Z,999.23
2017-03-08T02:16:38.630Z,999.19
2017-03-08T02:17:38.644Z,999.23
2017-03-08T02:18:38.672Z,999.21
2017-03-08T02:19:38.697Z,999.23
2017-03-08T02:20:38.726Z,999.27
2017-03-08T02:21:38.750Z,999.25
2017-03-08T02:22:38.779Z,999.25
2017-03-08T02:23:38.809Z,999.28
2017-03-08T02:24:38.829Z,999.26
2017-03-08T02:25:38.858Z,999.26
2017-03-08T02:26:38.882Z,999.26
2017-03-08T02:27:38.911Z,999.24
2017-03-08T02:28:38.936Z,999.26
2017-03-08T02:29:38.960Z,999.29
2017-03-08T02:30:38.990Z,999.28
2017-03-08T02:31:39.014Z,999.33
2017-03-08T02:32:39.043Z,999.35
2017-03-08T02:33:39.067Z,999.33
2017-03-08T02:34:39.096Z,999.37
2017-03-08T02:35:39.121Z,999.34
2017-03-08T02:36:39.150Z,999.32
2017-03-08T02:37:39.175Z,999.38
2017-03-08T02:38:39.200Z,999.35
2017-03-08T02:39:39.228Z,999.36
2017-03-08T02:40:39.253Z,999.36
2017-03-08T02:41:39.282Z,999.43
2017-03-08T02:42:39.307Z,999.44
2017-03-08T02:43:39.332Z,999.43
2017-03-08T02:44:39.361Z,999.47
2017-03-08T02:45:39.380Z,999.38
2017-03-08T02:46:39.413Z,999.38
2017-03-08T02:47:39.438Z,999.39
2017-03-08T02:48:39.467Z,999.34
2017-03-08T02:49:39.492Z,999.26
2017-03-08T02:50:39.516Z,999.3
2017-03-08T02:51:39.548Z,999.29
2017-03-08T02:52:39.571Z,999.33
2017-03-08T02:53:39.599Z,999.31
2017-03-08T02:54:39.624Z,999.32
2017-03-08T02:55:39.648Z,999.29
2017-03-08T02:56:39.677Z,999.27
2017-03-08T02:57:39.701Z,999.24
2017-03-08T02:58:39.758Z,999.24
2017-03-08T02:59:39.756Z,999.22
2017-03-08T03:00:39.780Z,999.24
2017-03-08T03:01:39.805Z,999.22
2017-03-08T03:02:39.833Z,999.24
2017-03-08T03:03:39.858Z,999.22
2017-03-08T03:04:39.887Z,999.21
2017-03-08T03:05:39.916Z,999.16
2017-03-08T03:06:39.948Z,999.13
2017-03-08T03:07:39.966Z,999.13
2017-03-08T03:08:39.990Z,999.14
2017-03-08T03:09:40.016Z,999.15
2017-03-08T03:10:40.048Z,999.17
2017-03-08T03:11:40.074Z,999.17
2017-03-08T03:12:40.102Z,999.11
2017-03-08T03:13:40.127Z,999.13
2017-03-08T03:14:40.153Z,999.12
2017-03-08T03:15:40.180Z,999.12
2017-03-08T03:16:40.204Z,999.12
2017-03-08T03:17:40.229Z,999.21
2017-03-08T03:18:40.258Z,999.14
2017-03-08T03:19:40.282Z,999.12
2017-03-08T03:20:40.311Z,999.14
2017-03-08T03:21:40.336Z,999.09
2017-03-08T03:22:40.365Z,999.05
2017-03-08T03:23:40.390Z,999.05
2017-03-08T03:24:40.414Z,999.11
2017-03-08T03:25:40.443Z,999.03
2017-03-08T03:26:40.468Z,998.97
2017-03-08T03:27:40.497Z,999
2017-03-08T03:28:40.525Z,998.9
2017-03-08T03:29:40.547Z,998.94
2017-03-08T03:30:40.575Z,999
2017-03-08T03:31:40.600Z,999
2017-03-08T03:32:40.625Z,998.97
2017-03-08T03:33:40.649Z,998.98
2017-03-08T03:34:40.678Z,999.01
2017-03-08T03:35:40.711Z,999.05
2017-03-08T03:36:40.731Z,999.09
2017-03-08T03:37:40.754Z,999.06
2017-03-08T03:38:40.785Z,999.06
2017-03-08T03:39:40.810Z,999.09
2017-03-08T03:40:40.839Z,999.14
2017-03-08T03:41:40.864Z,999.16
2017-03-08T03:42:40.892Z,999.17
2017-03-08T03:43:40.917Z,999.23
2017-03-08T03:44:40.941Z,999.26
2017-03-08T03:45:40.970Z,999.3
2017-03-08T03:46:40.995Z,999.3
2017-03-08T03:47:41.020Z,999.3
2017-03-08T03:48:41.044Z,999.31
2017-03-08T03:49:41.069Z,999.32
2017-03-08T03:50:41.103Z,999.3
2017-03-08T03:51:41.128Z,999.33
2017-03-08T03:52:41.152Z,999.36
2017-03-08T03:53:41.180Z,999.39
2017-03-08T03:54:41.205Z,999.43
2017-03-08T03:55:41.230Z,999.48
2017-03-08T03:56:41.510Z,999.52
2017-03-08T03:57:41.283Z,999.53
2017-03-08T03:58:41.316Z,999.48
2017-03-08T03:59:41.337Z,999.47
2017-03-08T04:00:41.361Z,999.45
2017-03-08T04:01:41.642Z,999.41
2017-03-08T04:02:41.415Z,999.46
2017-03-08T04:03:41.444Z,999.44
2017-03-08T04:04:41.469Z,999.45
2017-03-08T04:05:41.492Z,999.46
2017-03-08T04:06:41.523Z,999.42
2017-03-08T04:07:41.547Z,999.42
2017-03-08T04:08:41.576Z,999.4
2017-03-08T04:09:41.600Z,999.39
2017-03-08T04:10:41.622Z,999.4
2017-03-08T04:11:41.654Z,999.39
2017-03-08T04:12:41.679Z,999.4
2017-03-08T04:13:41.700Z,999.39
2017-03-08T04:14:41.729Z,999.4
2017-03-08T04:15:41.757Z,999.4
2017-03-08T04:16:41.782Z,999.41
2017-03-08T04:17:41.811Z,999.43
2017-03-08T04:18:41.835Z,999.37
2017-03-08T04:19:41.864Z,999.4
2017-03-08T04:20:41.890Z,999.4
2017-03-08T04:21:41.914Z,999.31
2017-03-08T04:22:41.943Z,999.32
2017-03-08T04:23:41.963Z,999.31
2017-03-08T04:24:41.992Z,999.27
2017-03-08T04:25:42.020Z,999.23
2017-03-08T04:26:42.045Z,999.22
2017-03-08T04:27:42.070Z,999.19
2017-03-08T04:28:42.099Z,999.2
2017-03-08T04:29:42.124Z,999.15
2017-03-08T04:30:42.152Z,999.12
2017-03-08T04:31:42.177Z,999.09
2017-03-08T04:32:42.199Z,999.12
2017-03-08T04:33:42.231Z,999.12
2017-03-08T04:34:42.255Z,999.07
2017-03-08T04:35:42.280Z,999.07
2017-03-08T04:36:42.309Z,999.07
2017-03-08T04:37:42.334Z,999.04
2017-03-08T04:38:42.363Z,999.02
2017-03-08T04:39:42.387Z,999.04
2017-03-08T04:40:42.412Z,999.06
2017-03-08T04:41:42.440Z,999.04
2017-03-08T04:42:42.466Z,999.03
2017-03-08T04:43:42.491Z,999.04
2017-03-08T04:44:42.519Z,999.01
2017-03-08T04:45:42.544Z,998.97
2017-03-08T04:46:42.573Z,998.98
2017-03-08T04:47:42.597Z,998.97
2017-03-08T04:48:42.626Z,998.94
2017-03-08T04:49:42.651Z,998.96
2017-03-08T04:50:42.680Z,998.95
2017-03-08T04:51:42.703Z,998.98
2017-03-08T04:52:42.730Z,998.99
2017-03-08T04:53:42.759Z,999
2017-03-08T04:54:42.783Z,999
2017-03-08T04:55:42.807Z,998.95
2017-03-08T04:56:42.832Z,999
2017-03-08T04:57:42.861Z,999
2017-03-08T04:58:42.886Z,999
2017-03-08T04:59:42.915Z,999
2017-03-08T05:00:42.940Z,999.07
2017-03-08T05:01:42.964Z,999.07
2017-03-08T05:02:42.993Z,999
2017-03-08T05:03:43.017Z,998.94
2017-03-08T05:04:43.038Z,999
2017-03-08T05:05:43.072Z,998.9
2017-03-08T05:06:43.096Z,998.93
2017-03-08T05:07:43.121Z,998.88
2017-03-08T05:08:43.150Z,998.79
2017-03-08T05:09:43.171Z,998.82
2017-03-08T05:10:43.199Z,998.75
2017-03-08T05:11:43.228Z,998.68
2017-03-08T05:12:43.252Z,998.68
2017-03-08T05:13:43.281Z,998.67
2017-03-08T05:14:43.306Z,998.75
2017-03-08T05:15:43.331Z,998.77
2017-03-08T05:16:43.360Z,998.74
2017-03-08T05:17:43.664Z,998.7
2017-03-08T05:18:43.409Z,998.67
2017-03-08T05:19:43.437Z,998.68
2017-03-08T05:20:43.462Z,998.71
2017-03-08T05:21:43.487Z,998.69
2017-03-08T05:22:43.516Z,998.66
2017-03-08T05:23:43.536Z,998.66
2017-03-08T05:24:43.565Z,998.63
2017-03-08T05:25:43.594Z,998.63
2017-03-08T05:26:43.623Z,998.6
2017-03-08T05:27:43.644Z,998.59
2017-03-08T05:28:43.673Z,998.56
2017-03-08T05:29:43.698Z,998.6
2017-03-08T05:30:43.723Z,998.58
2017-03-08T05:31:43.753Z,998.58
2017-03-08T05:32:43.776Z,998.53
2017-03-08T05:33:43.800Z,998.52
2017-03-08T05:34:43.829Z,998.53
2017-03-08T05:35:43.854Z,998.57
2017-03-08T05:36:43.882Z,998.59
2017-03-08T05:37:43.907Z,998.61
2017-03-08T05:38:43.932Z,998.62
2017-03-08T05:39:43.961Z,998.6
2017-03-08T05:40:43.986Z,998.61
2017-03-08T05:41:44.011Z,998.57
2017-03-08T05:42:44.040Z,998.56
2017-03-08T05:43:44.064Z,998.57
2017-03-08T05:44:44.089Z,998.58
2017-03-08T05:45:44.119Z,998.61
2017-03-08T05:46:44.144Z,998.66
2017-03-08T05:47:44.167Z,998.65
2017-03-08T05:48:44.195Z,998.66
2017-03-08T05:49:44.220Z,998.72
2017-03-08T05:50:44.245Z,998.8
2017-03-08T05:51:44.274Z,998.82
2017-03-08T05:52:44.299Z,998.84
2017-03-08T05:53:44.327Z,998.87
2017-03-08T05:54:44.353Z,998.83
2017-03-08T05:55:44.377Z,998.84
2017-03-08T05:56:44.397Z,998.79
2017-03-08T05:57:44.431Z,998.73
2017-03-08T05:58:44.451Z,998.71
2017-03-08T05:59:44.483Z,998.69
2017-03-08T06:00:44.509Z,998.77
2017-03-08T06:01:44.534Z,998.75
2017-03-08T06:02:44.562Z,998.73
2017-03-08T06:03:44.583Z,998.8
2017-03-08T06:04:44.617Z,998.77
2017-03-08T06:05:44.641Z,998.79
2017-03-08T06:06:44.665Z,998.79
2017-03-08T06:07:44.694Z,998.76
2017-03-08T06:08:44.719Z,998.78
2017-03-08T06:09:44.744Z,998.68
2017-03-08T06:10:44.773Z,998.64
2017-03-08T06:11:44.798Z,998.64
2017-03-08T06:12:44.827Z,998.63
2017-03-08T06:13:44.851Z,998.66
2017-03-08T06:14:44.871Z,998.69
2017-03-08T06:15:44.905Z,998.76
2017-03-08T06:16:44.929Z,998.75
2017-03-08T06:17:44.954Z,998.79
2017-03-08T06:18:44.983Z,998.78
2017-03-08T06:19:45.006Z,998.8
2017-03-08T06:20:45.036Z,998.82
2017-03-08T06:21:45.060Z,998.83
2017-03-08T06:22:45.089Z,998.82
2017-03-08T06:23:45.114Z,998.78
2017-03-08T06:24:45.139Z,998.82
2017-03-08T06:25:45.168Z,998.83
2017-03-08T06:26:45.193Z,998.81
2017-03-08T06:27:45.222Z,998.82
2017-03-08T06:28:45.247Z,998.85
2017-03-08T06:29:45.271Z,998.82
2017-03-08T06:30:45.300Z,998.88
2017-03-08T06:31:45.325Z,998.87
2017-03-08T06:32:45.349Z,998.94
2017-03-08T06:33:45.629Z,998.87
2017-03-08T06:34:45.403Z,998.92
2017-03-08T06:35:45.432Z,998.94
2017-03-08T06:36:45.456Z,998.9
2017-03-08T06:37:45.477Z,998.91
2017-03-08T06:38:45.761Z,998.94
2017-03-08T06:39:45.533Z,998.92
2017-03-08T06:40:45.564Z,998.98
2017-03-08T06:41:45.588Z,998.97
2017-03-08T06:42:45.612Z,999.04
2017-03-08T06:43:45.642Z,999.07
2017-03-08T06:44:45.668Z,999.06
2017-03-08T06:45:45.696Z,999.05
2017-03-08T06:46:45.719Z,999.1
2017-03-08T06:47:45.745Z,999.1
2017-03-08T06:48:45.774Z,999.09
2017-03-08T06:49:45.799Z,999.1
2017-03-08T06:50:45.827Z,999.08
2017-03-08T06:51:45.851Z,999.03
2017-03-08T06:52:45.881Z,999.01
2017-03-08T06:53:45.905Z,999.04
2017-03-08T06:54:45.929Z,999.07
2017-03-08T06:55:45.959Z,999.08
2017-03-08T06:56:45.984Z,999.08
2017-03-08T06:57:46.012Z,999.13
2017-03-08T06:58:46.037Z,999.13
2017-03-08T06:59:46.070Z,999.12
2017-03-08T07:00:46.087Z,999.13
2017-03-08T07:01:46.118Z,999.16
2017-03-08T07:02:46.146Z,999.18
2017-03-08T07:03:46.169Z,999.22
2017-03-08T07:04:46.195Z,999.22
2017-03-08T07:05:46.223Z,999.26
2017-03-08T07:06:46.252Z,999.25
2017-03-08T07:07:46.277Z,999.3
2017-03-08T07:08:46.297Z,999.26
2017-03-08T07:09:46.329Z,999.31
2017-03-08T07:10:46.352Z,999.3
2017-03-08T07:11:46.382Z,999.3
2017-03-08T07:12:46.408Z,999.3
2017-03-08T07:13:46.438Z,999.33
2017-03-08T07:14:46.463Z,999.32
2017-03-08T07:15:46.486Z,999.34
2017-03-08T07:16:46.515Z,999.34
2017-03-08T07:17:46.539Z,999.33
2017-03-08T07:18:46.569Z,999.35
2017-03-08T07:19:46.594Z,999.27
2017-03-08T07:20:46.626Z,999.26
2017-03-08T07:21:46.647Z,999.26
2017-03-08T07:22:46.676Z,999.19
2017-03-08T07:23:46.701Z,999.2
2017-03-08T07:24:46.730Z,999.11
2017-03-08T07:25:46.768Z,999.16
2017-03-08T07:26:46.781Z,999.16
2017-03-08T07:27:46.807Z,999.15
2017-03-08T07:28:46.832Z,999.17
2017-03-08T07:29:46.860Z,999.19
2017-03-08T07:30:46.886Z,999.21
2017-03-08T07:31:46.914Z,999.2
2017-03-08T07:32:46.939Z,999.21
2017-03-08T07:33:46.968Z,999.19
2017-03-08T07:34:46.993Z,999.18
2017-03-08T07:35:47.022Z,999.21
2017-03-08T07:36:47.046Z,999.2
2017-03-08T07:37:47.075Z,999.22
2017-03-08T07:38:47.099Z,999.13
2017-03-08T07:39:47.129Z,999.15
2017-03-08T07:40:47.153Z,999.17
2017-03-08T07:41:47.182Z,999.16
2017-03-08T07:42:47.207Z,999.14
2017-03-08T07:43:47.236Z,999.15
2017-03-08T07:44:47.512Z,999.11
2017-03-08T07:45:47.289Z,999.16
2017-03-08T07:46:47.315Z,999.13
2017-03-08T07:47:47.338Z,999.16
2017-03-08T07:48:47.368Z,999.09
2017-03-08T07:49:47.642Z,999.08
2017-03-08T07:50:47.420Z,999.09
2017-03-08T07:51:47.450Z,999.11
2017-03-08T07:52:47.474Z,999.14
2017-03-08T07:53:47.502Z,999.1
2017-03-08T07:54:47.779Z,999.07
2017-03-08T07:55:47.557Z,999.09
2017-03-08T07:56:47.581Z,999.08
2017-03-08T07:57:47.610Z,999.07
2017-03-08T07:58:47.635Z,999.11
2017-03-08T07:59:47.663Z,999.1
2017-03-08T08:00:47.688Z,999.05
2017-03-08T08:01:47.717Z,999.1
2017-03-08T08:02:47.738Z,999.05
2017-03-08T08:03:47.771Z,999.05
2017-03-08T08:04:47.796Z,999.01
2017-03-08T08:05:47.825Z,999.03
2017-03-08T08:06:47.849Z,998.99
2017-03-08T08:07:47.878Z,998.93
2017-03-08T08:08:47.902Z,998.91
2017-03-08T08:09:47.933Z,998.91
2017-03-08T08:10:47.956Z,998.81
2017-03-08T08:11:47.984Z,998.79
2017-03-08T08:12:48.013Z,998.8
2017-03-08T08:13:48.038Z,998.77
2017-03-08T08:14:48.094Z,998.72
2017-03-08T08:15:48.092Z,998.77
2017-03-08T08:16:48.116Z,998.73
2017-03-08T08:17:48.145Z,998.73
2017-03-08T08:18:48.177Z,998.75
2017-03-08T08:19:48.199Z,998.73
2017-03-08T08:20:48.225Z,998.69
2017-03-08T08:21:48.252Z,998.64
2017-03-08T08:22:48.273Z,998.63
2017-03-08T08:23:48.306Z,998.6
2017-03-08T08:24:48.334Z,998.54
2017-03-08T08:25:48.363Z,998.53
2017-03-08T08:26:48.388Z,998.49
2017-03-08T08:27:48.412Z,998.42
2017-03-08T08:28:48.441Z,998.46
2017-03-08T08:29:48.466Z,998.37
2017-03-08T08:30:48.495Z,998.34
2017-03-08T08:31:48.515Z,998.34
2017-03-08T08:32:48.550Z,998.38
2017-03-08T08:33:48.590Z,998.31
2017-03-08T08:34:48.601Z,998.31
2017-03-08T08:35:48.631Z,998.31
2017-03-08T08:36:48.650Z,998.31
2017-03-08T08:37:48.680Z,998.34
2017-03-08T08:38:48.709Z,998.31
2017-03-08T08:39:48.734Z,998.35
2017-03-08T08:40:48.763Z,998.29
2017-03-08T08:41:48.791Z,998.27
2017-03-08T08:42:48.816Z,998.27
2017-03-08T08:43:48.841Z,998.28
2017-03-08T08:44:48.870Z,998.21
2017-03-08T08:45:48.898Z,998.27
2017-03-08T08:46:48.923Z,998.26
2017-03-08T08:47:48.951Z,998.24
2017-03-08T08:48:48.976Z,998.15
2017-03-08T08:49:49.005Z,998.19
2017-03-08T08:50:49.029Z,998.17
2017-03-08T08:51:49.057Z,998.11
2017-03-08T08:52:49.083Z,998.11
2017-03-08T08:53:49.112Z,998.16
2017-03-08T08:54:49.133Z,998.2
2017-03-08T08:55:49.419Z,998.2
2017-03-08T08:56:49.191Z,998.17
2017-03-08T08:57:49.220Z,998.13
2017-03-08T08:58:49.244Z,998.12
2017-03-08T08:59:49.272Z,998.06
2017-03-08T09:00:49.547Z,998.06
2017-03-08T09:01:49.326Z,998.03
2017-03-08T09:02:49.346Z,998.08
2017-03-08T09:03:49.379Z,998.09
2017-03-08T09:04:49.404Z,998.13
2017-03-08T09:05:49.681Z,998.09
2017-03-08T09:06:49.458Z,998.12
2017-03-08T09:07:49.482Z,998.13
2017-03-08T09:08:49.513Z,998.12
2017-03-08T09:09:49.539Z,998.1
2017-03-08T09:10:49.813Z,998.04
2017-03-08T09:11:49.593Z,998.09
2017-03-08T09:12:49.618Z,998.12
2017-03-08T09:13:49.646Z,998.09
2017-03-08T09:14:49.671Z,998.04
2017-03-08T09:15:49.948Z,998.09
2017-03-08T09:16:49.725Z,998.02
2017-03-08T09:17:49.756Z,998.05
2017-03-08T09:18:49.778Z,997.98
2017-03-08T09:19:49.811Z,998.03
2017-03-08T09:20:50.084Z,998.03
2017-03-08T09:21:49.856Z,998.08
2017-03-08T09:22:49.885Z,998.02
2017-03-08T09:23:49.910Z,998.03
2017-03-08T09:24:49.939Z,998.04
2017-03-08T09:25:50.219Z,998.06
2017-03-08T09:26:49.992Z,998.06
2017-03-08T09:27:50.021Z,998.02
2017-03-08T09:28:50.041Z,998
2017-03-08T09:29:50.075Z,998
2017-03-08T09:30:50.351Z,998.08
2017-03-08T09:31:50.127Z,998.05
2017-03-08T09:32:50.156Z,997.99
2017-03-08T09:33:50.181Z,997.97
2017-03-08T09:34:50.210Z,997.98
2017-03-08T09:35:50.489Z,998.02
2017-03-08T09:36:50.264Z,997.98
2017-03-08T09:37:50.285Z,998
2017-03-08T09:38:50.317Z,997.95
2017-03-08T09:39:50.347Z,997.96
2017-03-08T09:40:50.622Z,997.97
2017-03-08T09:41:50.399Z,997.95
2017-03-08T09:42:50.424Z,997.83
2017-03-08T09:43:50.445Z,997.81
2017-03-08T09:44:50.473Z,997.81
2017-03-08T09:45:50.753Z,997.83
2017-03-08T09:46:50.530Z,997.83
2017-03-08T09:47:50.559Z,997.8
2017-03-08T09:48:50.584Z,997.78
2017-03-08T09:49:50.609Z,997.76
2017-03-08T09:50:50.638Z,997.79
2017-03-08T09:51:50.668Z,997.84
2017-03-08T09:52:50.692Z,997.78
2017-03-08T09:53:50.715Z,997.84
2017-03-08T09:54:50.741Z,997.77
2017-03-08T09:55:50.773Z,997.78
2017-03-08T09:56:50.798Z,997.76
2017-03-08T09:57:50.820Z,997.74
2017-03-08T09:58:50.852Z,997.76
2017-03-08T09:59:50.877Z,997.74
2017-03-08T10:00:50.902Z,997.74
2017-03-08T10:01:50.935Z,997.71
2017-03-08T10:02:50.959Z,997.71
2017-03-08T10:03:50.988Z,997.7
2017-03-08T10:04:51.012Z,997.63
2017-03-08T10:05:51.041Z,997.69
2017-03-08T10:06:51.066Z,997.72
2017-03-08T10:07:51.095Z,997.7
2017-03-08T10:08:51.124Z,997.69
2017-03-08T10:09:51.148Z,997.74
2017-03-08T10:10:51.176Z,997.7
2017-03-08T10:11:51.202Z,997.73
2017-03-08T10:12:51.226Z,997.7
2017-03-08T10:13:51.255Z,997.68
2017-03-08T10:14:51.275Z,997.67
2017-03-08T10:15:51.309Z,997.67
2017-03-08T10:16:51.337Z,997.68
2017-03-08T10:17:51.362Z,997.64
2017-03-08T10:18:51.391Z,997.66
2017-03-08T10:19:51.411Z,997.63
2017-03-08T10:20:51.446Z,997.62
2017-03-08T10:21:51.469Z,997.59
2017-03-08T10:22:51.498Z,997.61
2017-03-08T10:23:51.523Z,997.61
2017-03-08T10:24:51.552Z,997.65
2017-03-08T10:25:51.576Z,997.62
2017-03-08T10:26:51.604Z,997.67
2017-03-08T10:27:51.630Z,997.63
2017-03-08T10:28:51.658Z,997.58
2017-03-08T10:29:51.684Z,997.62
2017-03-08T10:30:51.711Z,997.61
2017-03-08T10:31:51.741Z,997.66
2017-03-08T10:32:51.765Z,997.58
2017-03-08T10:33:51.794Z,997.58
2017-03-08T10:34:51.819Z,997.67
2017-03-08T10:35:51.847Z,997.67
2017-03-08T10:36:51.872Z,997.73
2017-03-08T10:37:51.900Z,997.61
2017-03-08T10:38:51.925Z,997.69
2017-03-08T10:39:51.954Z,997.7
2017-03-08T10:40:51.979Z,997.75
2017-03-08T10:41:52.003Z,997.72
2017-03-08T10:42:52.033Z,997.81
2017-03-08T10:43:52.061Z,997.75
2017-03-08T10:44:52.087Z,997.84
2017-03-08T10:45:52.115Z,997.9
2017-03-08T10:46:52.144Z,997.9
2017-03-08T10:47:52.167Z,997.9
2017-03-08T10:48:52.195Z,997.9
2017-03-08T10:49:52.218Z,997.94
2017-03-08T10:50:52.251Z,997.97
2017-03-08T10:51:52.275Z,997.97
2017-03-08T10:52:52.304Z,997.98
2017-03-08T10:53:52.328Z,997.91
2017-03-08T10:54:52.358Z,997.94
2017-03-08T10:55:52.383Z,997.93
2017-03-08T10:56:52.410Z,997.88
2017-03-08T10:57:52.436Z,997.85
2017-03-08T10:58:52.464Z,997.77
2017-03-08T10:59:52.490Z,997.74
2017-03-08T11:00:52.518Z,997.72
2017-03-08T11:01:52.542Z,997.7
2017-03-08T11:02:52.577Z,997.6
2017-03-08T11:03:52.597Z,997.58
2017-03-08T11:04:52.625Z,997.58
2017-03-08T11:05:52.650Z,997.54
2017-03-08T11:06:52.679Z,997.47
2017-03-08T11:07:52.700Z,997.44
2017-03-08T11:08:52.732Z,997.29
2017-03-08T11:09:52.753Z,997.33
2017-03-08T11:10:52.786Z,997.37
2017-03-08T11:11:52.815Z,997.4
2017-03-08T11:12:52.839Z,997.35
2017-03-08T11:13:52.864Z,997.32
2017-03-08T11:14:52.893Z,997.38
2017-03-08T11:15:52.921Z,997.3
2017-03-08T11:16:52.948Z,997.32
2017-03-08T11:17:52.971Z,997.35
2017-03-08T11:18:53.000Z,997.31
2017-03-08T11:19:53.028Z,997.24
2017-03-08T11:20:53.052Z,997.29
2017-03-08T11:21:53.078Z,997.23
2017-03-08T11:22:53.103Z,997.27
2017-03-08T11:23:53.135Z,997.29
2017-03-08T11:24:53.160Z,997.38
2017-03-08T11:25:53.186Z,997.37
2017-03-08T11:26:53.465Z,997.36
2017-03-08T11:27:53.241Z,997.36
2017-03-08T11:28:53.267Z,997.43
2017-03-08T11:29:53.291Z,997.39
2017-03-08T11:30:53.321Z,997.41
2017-03-08T11:31:53.595Z,997.4
2017-03-08T11:32:53.374Z,997.47
2017-03-08T11:33:53.398Z,997.41
2017-03-08T11:34:53.427Z,997.37
2017-03-08T11:35:53.452Z,997.3
2017-03-08T11:36:53.740Z,997.29
2017-03-08T11:37:53.510Z,997.28
2017-03-08T11:38:53.530Z,997.23
2017-03-08T11:39:53.559Z,997.24
2017-03-08T11:40:53.586Z,997.15
2017-03-08T11:41:53.868Z,997.1
2017-03-08T11:42:53.640Z,997.1
2017-03-08T11:43:53.661Z,997.09
2017-03-08T11:44:53.694Z,996.96
2017-03-08T11:45:53.718Z,996.96
2017-03-08T11:46:53.995Z,996.88
2017-03-08T11:47:53.769Z,996.9
2017-03-08T11:48:53.802Z,996.93
2017-03-08T11:49:53.827Z,996.78
2017-03-08T11:50:53.855Z,996.87
2017-03-08T11:51:54.132Z,996.97
2017-03-08T11:52:53.909Z,996.78
2017-03-08T11:53:53.934Z,996.77
2017-03-08T11:54:53.958Z,996.78
2017-03-08T11:55:53.987Z,996.82
2017-03-08T11:56:54.267Z,996.84
2017-03-08T11:57:54.036Z,996.9
2017-03-08T11:58:54.069Z,996.82
2017-03-08T11:59:54.090Z,996.85
2017-03-08T12:00:54.119Z,996.79
2017-03-08T12:01:54.399Z,996.83
2017-03-08T12:02:54.179Z,996.86
2017-03-08T12:03:54.199Z,996.82
2017-03-08T12:04:54.229Z,996.85
2017-03-08T12:05:54.257Z,996.91
2017-03-08T12:06:54.531Z,996.9
2017-03-08T12:07:54.307Z,997.04
2017-03-08T12:08:54.332Z,996.96
2017-03-08T12:09:54.362Z,996.98
2017-03-08T12:10:54.382Z,996.99
2017-03-08T12:11:54.660Z,997.08
2017-03-08T12:12:54.439Z,997.06
2017-03-08T12:13:54.464Z,997.01
2017-03-08T12:14:54.493Z,997.02
2017-03-08T12:15:54.516Z,996.96
2017-03-08T12:16:54.799Z,996.95
2017-03-08T12:17:54.576Z,996.89
2017-03-08T12:18:54.600Z,996.97
2017-03-08T12:19:54.625Z,996.85
2017-03-08T12:20:54.650Z,996.87
2017-03-08T12:21:54.682Z,996.86
2017-03-08T12:22:54.707Z,996.78
2017-03-08T12:23:54.732Z,996.72
2017-03-08T12:24:54.761Z,996.82
2017-03-08T12:25:54.785Z,996.78
2017-03-08T12:26:54.814Z,996.83
2017-03-08T12:27:54.842Z,996.76
2017-03-08T12:28:54.867Z,996.82
2017-03-08T12:29:54.893Z,996.81
2017-03-08T12:30:54.921Z,996.78
2017-03-08T12:31:54.946Z,996.86
2017-03-08T12:32:54.974Z,996.72